Terminal Aerodrome Forecast
Issued by NWS

Home | Current Version | Previous Version | Text Only | Print | Product List | Glossary On
Versions: 1 2 3 4 5 6 7 8 9 10 11 12 13 14 15 16 17 18 19 20 21 22 23 24 25 26 27 28 29 30 31 32 33 34 35 36 37 38 39 40 41 42 43 44 45 46 47 48 49
000
FTUS43 KMKX 302329
TAFUES
TAF
KUES 302329Z 3100/3124 26006KT P6SM SCT030 SCT060
     FM310500 30004KT P6SM SCT040
     FM310700 VRB03KT 3SM BR SKC
     FM310900 VRB03KT 1/2SM FG SCT003
      TEMPO 3109/3112 BKN003
     FM311300 VRB03KT 1 1/2SM BR BKN008
     FM311500 14005KT P6SM SCT015
     FM312000 18008KT P6SM SCT030=

USA.gov is the U.S. government's official web portal to all federal, state and local government web resources and services.